createdAt,value
2022-12-28T00:00:13.003Z,10.77
2022-12-28T00:01:26.762Z,8.95
2022-12-28T00:02:29.965Z,11.18
2022-12-28T00:03:37.701Z,11.20
2022-12-28T00:04:44.832Z,11.00
2022-12-28T00:06:43.075Z,11.32
2022-12-28T00:07:34.706Z,11.10
2022-12-28T00:08:40.905Z,10.38
2022-12-28T00:09:46.770Z,11.18
2022-12-28T00:11:08.065Z,11.20
2022-12-28T00:12:15.025Z,10.73
2022-12-28T00:13:20.575Z,11.70
2022-12-28T00:14:27.176Z,10.73
2022-12-28T00:15:32.037Z,10.68
2022-12-28T00:16:42.258Z,10.43
2022-12-28T00:17:48.916Z,10.88
2022-12-28T00:18:55.281Z,10.68
2022-12-28T00:20:06.708Z,10.68
2022-12-28T00:21:10.390Z,10.82
2022-12-28T00:22:15.882Z,10.43
2022-12-28T00:23:32.942Z,10.60
2022-12-28T00:24:47.912Z,10.02
2022-12-28T00:25:57.917Z,8.90
2022-12-28T00:27:04.806Z,9.52
2022-12-28T00:28:08.091Z,10.07
2022-12-28T00:29:12.078Z,10.23
2022-12-28T00:30:23.231Z,9.45
2022-12-28T00:31:25.804Z,9.57
2022-12-28T00:32:30.950Z,10.27
2022-12-28T00:33:43.147Z,9.32
2022-12-28T00:34:51.122Z,9.85
2022-12-28T00:35:59.795Z,9.98
2022-12-28T00:37:12.951Z,10.00
2022-12-28T00:38:21.162Z,8.25
2022-12-28T00:39:32.433Z,10.82
2022-12-28T00:40:37.036Z,10.73
2022-12-28T00:41:40.546Z,10.95
2022-12-28T00:42:46.379Z,8.40
2022-12-28T00:44:05.034Z,8.88
2022-12-28T00:45:10.722Z,9.70
2022-12-28T00:46:14.138Z,9.60
2022-12-28T00:47:20.433Z,8.63
2022-12-28T00:48:28.436Z,9.30
2022-12-28T00:49:38.116Z,10.13
2022-12-28T00:50:51.794Z,8.98
2022-12-28T00:51:57.031Z,8.35
2022-12-28T00:53:04.176Z,9.88
2022-12-28T00:54:06.686Z,9.00
2022-12-28T00:55:12.295Z,9.43
2022-12-28T00:56:21.671Z,8.73
2022-12-28T00:57:27.539Z,9.38
2022-12-28T00:58:29.931Z,9.43
2022-12-28T00:59:45.112Z,9.23
2022-12-28T01:00:53.239Z,8.40
2022-12-28T01:02:00.441Z,8.88
2022-12-28T01:03:15.615Z,8.40
2022-12-28T01:04:18.293Z,8.50
2022-12-28T01:05:26.657Z,7.95
2022-12-28T01:06:32.955Z,8.10
2022-12-28T01:07:41.668Z,9.52
2022-12-28T01:08:44.733Z,7.97
2022-12-28T01:09:49.378Z,8.43
2022-12-28T01:10:53.802Z,9.00
2022-12-28T01:11:56.218Z,7.88
2022-12-28T01:13:00.895Z,8.18
2022-12-28T01:14:04.188Z,8.50
2022-12-28T01:15:14.548Z,8.95
2022-12-28T01:16:20.087Z,9.52
2022-12-28T01:17:25.198Z,9.27
2022-12-28T01:18:36.337Z,9.50
2022-12-28T01:19:39.125Z,9.43
2022-12-28T01:20:45.103Z,9.23
2022-12-28T01:21:52.971Z,9.00
2022-12-28T01:23:09.431Z,9.18
2022-12-28T01:25:34.098Z,10.05
2022-12-28T01:26:37.229Z,9.43
2022-12-28T01:27:45.651Z,10.02
2022-12-28T01:28:48.148Z,9.63
2022-12-28T01:29:57.867Z,9.60
2022-12-28T01:31:11.659Z,8.75
2022-12-28T01:32:14.073Z,10.18
2022-12-28T01:33:17.719Z,9.65
2022-12-28T01:34:27.398Z,9.32
2022-12-28T01:35:29.897Z,9.02
2022-12-28T01:36:47.492Z,9.07
2022-12-28T01:38:01.029Z,8.48
2022-12-28T01:39:06.809Z,9.23
2022-12-28T01:40:17.633Z,8.02
2022-12-28T01:41:20.930Z,7.78
2022-12-28T01:42:23.654Z,8.88
2022-12-28T01:43:58.987Z,7.90
2022-12-28T01:45:21.095Z,7.53
2022-12-28T01:46:50.258Z,7.97
2022-12-28T01:47:55.256Z,7.95
2022-12-28T01:49:12.982Z,7.82
2022-12-28T01:50:20.234Z,8.48
2022-12-28T01:51:36.262Z,8.85
2022-12-28T01:53:05.496Z,8.82
2022-12-28T01:54:08.166Z,8.07
2022-12-28T01:55:30.151Z,8.98
2022-12-28T01:56:43.878Z,8.20
2022-12-28T01:58:07.956Z,8.23
2022-12-28T01:59:12.918Z,8.13
2022-12-28T02:00:20.693Z,7.88
2022-12-28T02:01:31.090Z,8.68
2022-12-28T02:02:37.199Z,8.15
2022-12-28T02:03:43.957Z,8.25
2022-12-28T02:05:00.163Z,8.75
2022-12-28T02:06:10.118Z,8.55
2022-12-28T02:07:29.663Z,7.97
2022-12-28T02:08:54.535Z,7.28
2022-12-28T02:10:40.703Z,7.70
2022-12-28T02:11:24.354Z,8.07
2022-12-28T02:12:29.752Z,8.02
2022-12-28T02:13:39.145Z,6.68
2022-12-28T02:14:47.480Z,8.00
2022-12-28T02:15:53.040Z,8.13
2022-12-28T02:16:59.743Z,7.68
2022-12-28T02:18:02.754Z,8.57
2022-12-28T02:19:07.150Z,8.07
2022-12-28T02:20:10.870Z,7.25
2022-12-28T02:21:58.907Z,8.20
2022-12-28T02:23:36.495Z,7.95
2022-12-28T02:25:17.042Z,7.07
2022-12-28T02:26:58.993Z,8.30
2022-12-28T02:28:58.112Z,8.10
2022-12-28T02:30:11.975Z,7.53
2022-12-28T02:31:39.049Z,7.65
2022-12-28T02:33:09.446Z,7.95
2022-12-28T02:34:26.299Z,8.63
2022-12-28T02:35:37.454Z,7.00
2022-12-28T02:36:52.402Z,7.20
2022-12-28T02:38:00.730Z,8.18
2022-12-28T02:39:25.698Z,7.25
2022-12-28T02:40:35.277Z,7.25
2022-12-28T02:41:41.938Z,7.18
2022-12-28T02:42:58.510Z,7.32
2022-12-28T02:44:03.150Z,7.00
2022-12-28T02:45:56.783Z,8.20
2022-12-28T02:47:22.233Z,7.43
2022-12-28T02:48:49.143Z,7.30
2022-12-28T02:50:09.981Z,7.47
2022-12-28T02:51:37.871Z,8.02
2022-12-28T02:53:05.229Z,7.35
2022-12-28T02:54:53.546Z,6.55
2022-12-28T02:56:17.294Z,7.43
2022-12-28T02:58:18.019Z,8.25
2022-12-28T02:59:57.307Z,8.10
2022-12-28T03:01:19.754Z,7.28
2022-12-28T03:02:54.630Z,7.13
2022-12-28T03:04:26.311Z,7.15
2022-12-28T03:06:10.754Z,7.45
2022-12-28T03:08:13.009Z,8.48
2022-12-28T03:09:39.805Z,6.20
2022-12-28T03:11:16.084Z,6.63
2022-12-28T03:12:50.365Z,6.95
2022-12-28T03:14:03.889Z,7.57
2022-12-28T03:15:48.644Z,7.35
2022-12-28T03:17:19.723Z,7.43
2022-12-28T03:18:43.526Z,7.82
2022-12-28T03:20:12.716Z,7.38
2022-12-28T03:21:34.809Z,7.50
2022-12-28T03:23:01.501Z,8.23
2022-12-28T03:24:28.344Z,7.45
2022-12-28T03:25:57.064Z,6.90
2022-12-28T03:27:30.735Z,7.95
2022-12-28T03:28:58.264Z,7.85
2022-12-28T03:30:30.762Z,7.55
2022-12-28T03:31:35.065Z,7.10
2022-12-28T03:32:43.015Z,6.57
2022-12-28T03:33:48.961Z,8.55
2022-12-28T03:34:52.922Z,8.77
2022-12-28T03:36:24.640Z,8.77
2022-12-28T03:37:33.870Z,9.20
2022-12-28T03:39:02.417Z,8.75
2022-12-28T03:40:17.509Z,8.55
2022-12-28T03:41:28.996Z,9.32
2022-12-28T03:43:05.272Z,8.52
2022-12-28T03:44:29.309Z,9.18
2022-12-28T03:46:02.645Z,8.48
2022-12-28T03:47:16.522Z,8.63
2022-12-28T03:48:20.049Z,8.35
2022-12-28T03:49:25.047Z,10.13
2022-12-28T03:50:30.616Z,9.30
2022-12-28T03:51:34.089Z,10.15
2022-12-28T03:52:45.081Z,8.65
2022-12-28T03:53:50.783Z,9.73
2022-12-28T03:54:56.486Z,8.98
2022-12-28T03:56:31.127Z,9.88
2022-12-28T03:57:39.827Z,8.45
2022-12-28T03:58:52.472Z,8.30
2022-12-28T03:59:56.505Z,8.55
2022-12-28T04:01:04.757Z,9.68
2022-12-28T04:02:08.871Z,10.85
2022-12-28T04:03:19.080Z,9.27
2022-12-28T04:04:34.091Z,9.50
2022-12-28T04:05:36.648Z,10.13
2022-12-28T04:06:39.674Z,9.15
2022-12-28T04:07:42.735Z,9.77
2022-12-28T04:08:46.857Z,9.75
2022-12-28T04:09:49.747Z,9.82
2022-12-28T04:10:52.869Z,10.48
2022-12-28T04:11:55.265Z,9.35
2022-12-28T04:13:10.914Z,9.48
2022-12-28T04:14:29.271Z,9.95
2022-12-28T04:15:31.756Z,10.60
2022-12-28T04:16:36.605Z,11.18
2022-12-28T04:17:41.441Z,11.77
2022-12-28T04:18:44.612Z,12.38
2022-12-28T04:19:47.660Z,11.07
2022-12-28T04:20:54.510Z,10.98
2022-12-28T04:21:59.406Z,11.18
2022-12-28T04:23:06.223Z,9.80
2022-12-28T04:24:11.427Z,9.38
2022-12-28T04:25:14.690Z,10.45
2022-12-28T04:26:18.866Z,9.27
2022-12-28T04:27:24.425Z,10.38
2022-12-28T04:28:30.986Z,9.75
2022-12-28T04:29:52.631Z,10.32
2022-12-28T04:30:56.444Z,8.75
2022-12-28T04:31:59.108Z,10.45
2022-12-28T04:33:06.145Z,9.65
2022-12-28T04:34:12.258Z,9.98
2022-12-28T04:35:19.659Z,9.52
2022-12-28T04:36:26.575Z,9.57
2022-12-28T04:37:30.147Z,10.18
2022-12-28T04:38:33.021Z,9.07
2022-12-28T04:39:54.095Z,9.95
2022-12-28T04:40:57.901Z,9.18
2022-12-28T04:42:03.284Z,9.55
2022-12-28T04:43:05.787Z,9.32
2022-12-28T04:44:08.380Z,10.57
2022-12-28T04:45:11.095Z,9.98
2022-12-28T04:46:15.048Z,11.18
2022-12-28T04:47:17.630Z,11.63
2022-12-28T04:48:19.950Z,11.65
2022-12-28T04:49:22.541Z,11.23
2022-12-28T04:50:25.920Z,11.45
2022-12-28T04:51:29.399Z,11.75
2022-12-28T04:52:34.227Z,12.00
2022-12-28T04:53:38.439Z,12.60
2022-12-28T04:54:40.961Z,13.55
2022-12-28T04:55:43.644Z,14.95
2022-12-28T04:56:46.418Z,22.92
2022-12-28T04:57:49.191Z,17.52
2022-12-28T04:58:57.106Z,17.48
2022-12-28T04:59:59.440Z,17.30
2022-12-28T05:01:13.369Z,16.08
2022-12-28T05:02:15.979Z,15.18
2022-12-28T05:03:18.511Z,15.00
2022-12-28T05:04:20.987Z,13.85
2022-12-28T05:05:23.435Z,17.33
2022-12-28T05:06:27.505Z,15.00
2022-12-28T05:07:30.173Z,16.70
2022-12-28T05:08:34.208Z,16.15
2022-12-28T05:09:36.820Z,15.27
2022-12-28T05:10:39.278Z,17.33
2022-12-28T05:11:41.822Z,17.38
2022-12-28T05:12:44.334Z,18.23
2022-12-28T05:13:47.145Z,17.33
2022-12-28T05:14:49.633Z,16.88
2022-12-28T05:15:52.052Z,17.48
2022-12-28T05:16:54.544Z,16.10
2022-12-28T05:17:57.220Z,17.15
2022-12-28T05:19:02.257Z,17.48
2022-12-28T05:20:08.282Z,16.40
2022-12-28T05:21:21.874Z,16.08
2022-12-28T05:22:24.252Z,15.32
2022-12-28T05:23:28.630Z,15.20
2022-12-28T05:24:33.541Z,13.60
2022-12-28T05:25:36.052Z,14.75
2022-12-28T05:26:38.631Z,17.67
2022-12-28T05:27:41.107Z,16.80
2022-12-28T05:28:44.063Z,16.65
2022-12-28T05:29:47.269Z,15.73
2022-12-28T05:30:49.738Z,16.55
2022-12-28T05:31:52.432Z,15.75
2022-12-28T05:32:54.910Z,17.67
2022-12-28T05:33:59.757Z,17.73
2022-12-28T05:35:02.188Z,17.42
2022-12-28T05:36:13.099Z,17.45
2022-12-28T05:37:20.202Z,16.23
2022-12-28T05:38:25.039Z,16.55
2022-12-28T05:39:27.686Z,18.75
2022-12-28T05:40:30.619Z,21.05
2022-12-28T05:41:33.228Z,23.50
2022-12-28T05:42:36.505Z,22.65
2022-12-28T05:43:39.555Z,20.85
2022-12-28T05:44:49.326Z,20.20
2022-12-28T05:45:51.873Z,20.23
2022-12-28T05:46:54.461Z,20.92
2022-12-28T05:47:58.034Z,21.17
2022-12-28T05:49:01.120Z,22.85
2022-12-28T05:50:03.735Z,19.70
2022-12-28T05:51:12.244Z,22.38
2022-12-28T05:52:16.420Z,20.13
2022-12-28T05:53:18.785Z,21.58
2022-12-28T05:54:21.248Z,20.73
2022-12-28T05:55:28.358Z,20.80
2022-12-28T05:56:37.014Z,22.13
2022-12-28T05:57:39.589Z,20.58
2022-12-28T05:58:43.869Z,19.42
2022-12-28T05:59:46.893Z,19.98
2022-12-28T06:00:49.220Z,21.23
2022-12-28T06:01:51.878Z,21.85
2022-12-28T06:02:58.010Z,20.45
2022-12-28T06:04:06.896Z,18.75
2022-12-28T06:05:09.506Z,18.77
2022-12-28T06:06:14.606Z,20.23
2022-12-28T06:07:17.190Z,18.77
2022-12-28T06:08:22.658Z,17.92
2022-12-28T06:09:26.052Z,18.83
2022-12-28T06:10:28.441Z,20.05
2022-12-28T06:11:31.383Z,18.23
2022-12-28T06:12:33.703Z,19.52
2022-12-28T06:13:36.983Z,18.80
2022-12-28T06:14:47.400Z,19.73
2022-12-28T06:15:49.808Z,19.55
2022-12-28T06:16:52.711Z,20.58
2022-12-28T06:17:55.153Z,20.38
2022-12-28T06:18:57.806Z,27.45
2022-12-28T06:20:00.502Z,30.83
2022-12-28T06:21:08.481Z,31.35
2022-12-28T06:22:10.942Z,22.98
2022-12-28T06:23:14.222Z,24.08
2022-12-28T06:24:20.641Z,24.25
2022-12-28T06:25:23.306Z,24.90
2022-12-28T06:26:38.241Z,26.08
2022-12-28T06:27:43.763Z,25.52
2022-12-28T06:28:51.305Z,25.23
2022-12-28T06:29:54.079Z,25.90
2022-12-28T06:31:07.105Z,24.80
2022-12-28T06:32:10.871Z,27.83
2022-12-28T06:33:15.505Z,28.23
2022-12-28T06:34:18.444Z,29.90
2022-12-28T06:35:20.837Z,33.92
2022-12-28T06:36:35.312Z,35.38
2022-12-28T06:37:38.254Z,33.65
2022-12-28T06:38:41.031Z,33.58
2022-12-28T06:39:43.402Z,31.10
2022-12-28T06:41:12.390Z,27.58
2022-12-28T06:42:08.908Z,27.60
2022-12-28T06:43:11.284Z,27.55
2022-12-28T06:44:14.517Z,29.52
2022-12-28T06:45:17.051Z,28.63
2022-12-28T06:46:21.281Z,27.73
2022-12-28T06:47:23.741Z,29.20
2022-12-28T06:48:26.507Z,28.98
2022-12-28T06:49:29.057Z,28.50
2022-12-28T06:50:36.804Z,27.55
2022-12-28T06:51:52.491Z,26.48
2022-12-28T06:52:57.601Z,23.67
2022-12-28T06:54:02.309Z,25.73
2022-12-28T06:55:13.508Z,27.17
2022-12-28T06:56:29.203Z,26.23
2022-12-28T06:57:32.261Z,26.85
2022-12-28T06:58:37.799Z,26.55
2022-12-28T06:59:40.508Z,24.77
2022-12-28T07:00:43.265Z,24.55
2022-12-28T07:01:46.416Z,25.48
2022-12-28T07:02:49.187Z,22.55
2022-12-28T07:03:54.213Z,25.20
2022-12-28T07:04:56.887Z,24.33
2022-12-28T07:06:03.978Z,25.58
2022-12-28T07:07:08.829Z,29.58
2022-12-28T07:08:13.717Z,30.65
2022-12-28T07:09:16.842Z,30.35
2022-12-28T07:10:19.323Z,30.50
2022-12-28T07:11:22.776Z,30.35
2022-12-28T07:12:25.690Z,30.70
2022-12-28T07:13:28.541Z,26.98
2022-12-28T07:14:32.565Z,27.80
2022-12-28T07:15:36.302Z,25.08
2022-12-28T07:17:40.832Z,24.50
2022-12-28T07:18:43.691Z,22.98
2022-12-28T07:19:47.377Z,21.50
2022-12-28T07:20:59.171Z,22.10
2022-12-28T07:22:01.856Z,21.40
2022-12-28T07:23:04.318Z,24.40
2022-12-28T07:24:07.805Z,28.77
2022-12-28T07:25:10.755Z,28.67
2022-12-28T07:26:20.795Z,29.48
2022-12-28T07:27:23.800Z,27.40
2022-12-28T07:28:26.209Z,30.17
2022-12-28T07:29:30.500Z,29.15
2022-12-28T07:30:41.535Z,29.27
2022-12-28T07:31:45.965Z,23.92
2022-12-28T07:33:52.498Z,20.25
2022-12-28T07:34:55.107Z,20.20
2022-12-28T07:37:02.433Z,15.02
2022-12-28T07:38:05.031Z,17.42
2022-12-28T07:39:14.904Z,14.95
2022-12-28T07:40:23.891Z,17.15
2022-12-28T07:41:32.913Z,16.83
2022-12-28T07:42:35.630Z,17.60
2022-12-28T07:43:38.882Z,17.30
2022-12-28T07:44:49.408Z,15.90
2022-12-28T07:46:05.195Z,16.13
2022-12-28T07:47:16.596Z,15.32
2022-12-28T07:48:19.184Z,17.42
2022-12-28T07:49:23.576Z,16.27
2022-12-28T07:51:40.714Z,14.35
2022-12-28T07:52:52.463Z,15.90
2022-12-28T07:53:56.270Z,14.80
2022-12-28T07:54:58.759Z,13.25
2022-12-28T07:56:04.564Z,13.93
2022-12-28T07:57:10.830Z,12.32
2022-12-28T07:58:14.591Z,12.10
2022-12-28T07:59:37.944Z,10.30
2022-12-28T08:00:40.531Z,10.73
2022-12-28T08:01:50.381Z,11.80
2022-12-28T08:02:58.854Z,9.98
2022-12-28T08:04:03.956Z,9.05
2022-12-28T08:05:08.235Z,10.50
2022-12-28T08:06:13.861Z,12.15
2022-12-28T08:07:24.540Z,10.80
2022-12-28T08:08:28.311Z,9.82
2022-12-28T08:09:34.050Z,9.90
2022-12-28T08:10:36.728Z,11.13
2022-12-28T08:11:44.699Z,9.88
2022-12-28T08:12:47.292Z,9.52
2022-12-28T08:13:52.121Z,10.20
2022-12-28T08:14:54.848Z,9.48
2022-12-28T08:15:57.377Z,9.73
2022-12-28T08:16:59.918Z,9.77
2022-12-28T08:18:02.799Z,8.85
2022-12-28T08:19:09.244Z,8.93
2022-12-28T08:20:12.426Z,9.02
2022-12-28T08:21:21.250Z,9.85
2022-12-28T08:22:27.211Z,7.38
2022-12-28T08:23:37.229Z,8.07
2022-12-28T08:24:42.361Z,7.68
2022-12-28T08:25:46.770Z,9.43
2022-12-28T08:27:06.752Z,7.90
2022-12-28T08:28:16.331Z,8.38
2022-12-28T08:29:26.701Z,7.13
2022-12-28T08:30:56.670Z,7.40
2022-12-28T08:32:13.519Z,7.72
2022-12-28T08:33:37.225Z,8.55
2022-12-28T08:35:33.236Z,7.57
2022-12-28T08:36:37.214Z,7.90
2022-12-28T08:39:39.775Z,14.88
2022-12-28T08:41:21.674Z,16.90
2022-12-28T08:42:24.978Z,14.88
2022-12-28T08:44:06.173Z,13.57
2022-12-28T08:45:13.531Z,8.02
2022-12-28T08:46:31.675Z,6.88
2022-12-28T08:49:04.555Z,7.00
2022-12-28T08:50:20.034Z,7.90
2022-12-28T08:51:28.362Z,7.35
2022-12-28T08:52:39.489Z,7.15
2022-12-28T08:54:08.193Z,6.55
2022-12-28T08:55:18.282Z,6.05
2022-12-28T08:56:25.733Z,8.13
2022-12-28T08:57:37.341Z,7.72
2022-12-28T08:58:45.567Z,7.68
2022-12-28T08:59:51.185Z,7.47
2022-12-28T09:01:00.867Z,9.07
2022-12-28T09:03:20.654Z,8.55
2022-12-28T09:04:29.258Z,9.48
2022-12-28T09:05:39.378Z,8.95
2022-12-28T09:06:53.181Z,8.55
2022-12-28T09:07:59.774Z,8.07
2022-12-28T09:09:10.494Z,9.02
2022-12-28T09:10:26.146Z,7.68
2022-12-28T09:11:29.241Z,8.40
2022-12-28T09:12:35.875Z,8.63
2022-12-28T09:13:45.489Z,8.15
2022-12-28T09:14:52.474Z,8.60
2022-12-28T09:16:27.836Z,9.25
2022-12-28T09:18:41.504Z,9.55
2022-12-28T09:19:52.863Z,10.30
2022-12-28T09:20:59.237Z,9.23
2022-12-28T09:22:05.846Z,10.00
2022-12-28T09:23:11.456Z,10.23
2022-12-28T09:24:17.177Z,9.90
2022-12-28T09:25:22.407Z,11.23
2022-12-28T09:26:31.540Z,9.80
2022-12-28T09:27:39.906Z,9.95
2022-12-28T09:28:50.079Z,8.50
2022-12-28T09:29:54.386Z,9.32
2022-12-28T09:30:57.586Z,8.80
2022-12-28T09:32:02.965Z,9.13
2022-12-28T09:34:13.893Z,8.57
2022-12-28T09:35:23.313Z,8.38
2022-12-28T09:38:16.489Z,8.73
2022-12-28T09:39:37.001Z,11.23
2022-12-28T09:40:52.919Z,9.05
2022-12-28T09:42:11.891Z,8.85
2022-12-28T09:43:27.393Z,10.55
2022-12-28T09:45:11.069Z,11.43
2022-12-28T09:47:12.710Z,9.95
2022-12-28T09:51:30.647Z,7.55
2022-12-28T09:53:27.590Z,7.78
2022-12-28T09:55:08.395Z,7.30
2022-12-28T09:57:05.882Z,6.63
2022-12-28T09:58:57.260Z,7.13
2022-12-28T10:00:04.772Z,7.43
2022-12-28T10:03:38.058Z,7.13
2022-12-28T10:04:44.503Z,7.90
2022-12-28T10:05:59.894Z,8.02
2022-12-28T10:07:03.038Z,8.40
2022-12-28T10:08:06.023Z,6.53
2022-12-28T10:09:16.424Z,7.72
2022-12-28T10:11:28.317Z,8.20
2022-12-28T10:12:31.564Z,7.90
2022-12-28T10:13:54.480Z,7.47
2022-12-28T10:14:59.850Z,9.45
2022-12-28T10:16:05.444Z,7.00
2022-12-28T10:17:16.841Z,8.65
2022-12-28T10:19:32.527Z,8.95
2022-12-28T10:20:45.087Z,7.47
2022-12-28T10:22:02.440Z,10.30
2022-12-28T10:23:07.871Z,9.48
2022-12-28T10:25:46.815Z,8.73
2022-12-28T10:27:11.047Z,10.32
2022-12-28T10:28:37.955Z,9.15
2022-12-28T10:30:21.827Z,7.45
2022-12-28T10:31:42.011Z,6.95
2022-12-28T10:33:03.783Z,7.35
2022-12-28T10:34:22.412Z,7.32
2022-12-28T10:35:56.769Z,6.68
2022-12-28T10:38:39.905Z,6.43
2022-12-28T10:40:10.269Z,7.40
2022-12-28T10:41:31.091Z,6.45
2022-12-28T10:43:08.488Z,7.65
2022-12-28T10:44:39.780Z,7.53
2022-12-28T10:45:50.171Z,7.55
2022-12-28T10:46:57.907Z,8.02
2022-12-28T10:48:08.903Z,8.32
2022-12-28T10:49:15.982Z,7.50
2022-12-28T10:50:57.080Z,7.03
2022-12-28T10:52:15.429Z,7.50
2022-12-28T10:53:40.630Z,7.25
2022-12-28T10:54:43.521Z,8.05
2022-12-28T10:55:46.154Z,8.55
2022-12-28T10:56:53.584Z,8.13
2022-12-28T10:58:27.947Z,8.43
2022-12-28T10:59:25.820Z,7.50
2022-12-28T11:00:28.857Z,7.45
2022-12-28T11:01:34.051Z,6.90
2022-12-28T11:02:36.797Z,7.20
2022-12-28T11:03:20.572Z,6.80
2022-12-28T11:03:45.269Z,7.75
2022-12-28T11:04:58.670Z,8.10
2022-12-28T11:06:12.842Z,8.52
2022-12-28T11:07:28.248Z,7.65
2022-12-28T11:08:30.856Z,8.27
2022-12-28T11:09:35.655Z,9.40
2022-12-28T11:10:39.475Z,7.82
2022-12-28T11:11:43.965Z,9.55
2022-12-28T11:12:46.933Z,11.73
2022-12-28T11:14:02.773Z,11.15
2022-12-28T11:15:20.632Z,11.05
2022-12-28T11:16:23.300Z,10.25
2022-12-28T11:17:28.928Z,6.90
2022-12-28T11:18:38.027Z,7.75
2022-12-28T11:19:40.989Z,8.05
2022-12-28T11:20:46.756Z,7.07
2022-12-28T11:21:50.352Z,8.20
2022-12-28T11:22:54.109Z,8.77
2022-12-28T11:23:56.691Z,7.60
2022-12-28T11:25:01.117Z,8.70
2022-12-28T11:26:04.657Z,7.70
2022-12-28T11:27:14.139Z,7.90
2022-12-28T11:28:19.870Z,8.45
2022-12-28T11:29:25.522Z,8.48
2022-12-28T11:30:29.385Z,9.98
2022-12-28T11:31:36.322Z,9.45
2022-12-28T11:32:51.746Z,7.15
2022-12-28T11:33:59.309Z,7.78
2022-12-28T11:35:02.372Z,8.00
2022-12-28T11:36:17.177Z,8.18
2022-12-28T11:37:20.194Z,7.68
2022-12-28T11:38:43.758Z,8.10
2022-12-28T11:39:50.152Z,7.40
2022-12-28T11:40:55.720Z,7.53
2022-12-28T11:42:37.361Z,7.30
2022-12-28T11:43:33.332Z,7.47
2022-12-28T11:44:40.148Z,6.03
2022-12-28T11:45:54.336Z,7.38
2022-12-28T11:47:17.741Z,7.53
2022-12-28T11:48:42.272Z,7.35
2022-12-28T11:49:46.437Z,6.97
2022-12-28T11:50:53.285Z,7.55
2022-12-28T11:52:17.801Z,7.18
2022-12-28T11:53:23.854Z,7.32
2022-12-28T11:54:50.825Z,8.00
2022-12-28T11:56:05.117Z,8.13
2022-12-28T11:57:08.886Z,8.48
2022-12-28T11:58:30.130Z,9.52
2022-12-28T11:59:36.633Z,8.63
2022-12-28T12:00:39.182Z,7.82
2022-12-28T12:01:43.553Z,7.47
2022-12-28T12:02:50.136Z,7.65
2022-12-28T12:03:58.935Z,8.68
2022-12-28T12:05:39.398Z,8.02
2022-12-28T12:06:42.024Z,6.85
2022-12-28T12:07:49.155Z,7.75
2022-12-28T12:08:52.721Z,7.70
2022-12-28T12:10:14.389Z,8.05
2022-12-28T12:11:32.061Z,8.18
2022-12-28T12:12:37.405Z,7.80
2022-12-28T12:13:45.040Z,8.20
2022-12-28T12:14:56.144Z,9.25
2022-12-28T12:16:04.364Z,8.25
2022-12-28T12:17:43.063Z,9.07
2022-12-28T12:18:55.760Z,7.20
2022-12-28T12:20:01.979Z,7.68
2022-12-28T12:21:22.235Z,8.48
2022-12-28T12:22:36.432Z,9.25
2022-12-28T12:23:49.166Z,9.05
2022-12-28T12:25:03.320Z,9.75
2022-12-28T12:26:31.741Z,8.98
2022-12-28T12:27:40.634Z,9.30
2022-12-28T12:28:54.467Z,7.57
2022-12-28T12:30:03.205Z,8.80
2022-12-28T12:31:12.093Z,9.45
2022-12-28T12:32:43.567Z,8.55
2022-12-28T12:33:49.168Z,8.13
2022-12-28T12:34:57.264Z,8.43
2022-12-28T12:36:09.202Z,7.68
2022-12-28T12:37:30.956Z,7.97
2022-12-28T12:38:52.284Z,7.65
2022-12-28T12:40:18.509Z,7.65
2022-12-28T12:41:46.386Z,7.55
2022-12-28T12:43:30.275Z,8.40
2022-12-28T12:45:02.958Z,8.60
2022-12-28T12:46:16.737Z,8.85
2022-12-28T12:47:58.194Z,8.25
2022-12-28T12:49:15.536Z,8.48
2022-12-28T12:50:46.951Z,8.45
2022-12-28T12:52:15.807Z,9.15
2022-12-28T12:53:30.575Z,9.88
2022-12-28T12:55:04.049Z,8.85
2022-12-28T12:56:26.003Z,8.50
2022-12-28T12:57:49.973Z,8.90
2022-12-28T12:59:23.265Z,8.32
2022-12-28T13:00:34.859Z,10.23
2022-12-28T13:01:56.011Z,9.20
2022-12-28T13:03:04.594Z,10.75
2022-12-28T13:04:29.781Z,9.55
2022-12-28T13:05:38.866Z,10.50
2022-12-28T13:06:42.637Z,11.63
2022-12-28T13:07:57.737Z,10.85
2022-12-28T13:09:10.278Z,13.93
2022-12-28T13:10:44.747Z,11.35
2022-12-28T13:11:48.573Z,13.55
2022-12-28T13:13:02.204Z,13.23
2022-12-28T13:14:14.795Z,11.07
2022-12-28T13:15:23.214Z,11.23
2022-12-28T13:16:30.077Z,12.27
2022-12-28T13:17:39.989Z,12.63
2022-12-28T13:18:59.672Z,13.35
2022-12-28T13:20:21.765Z,13.55
2022-12-28T13:21:39.019Z,12.68
2022-12-28T13:22:54.693Z,14.60
2022-12-28T13:23:59.646Z,13.65
2022-12-28T13:25:02.306Z,14.95
2022-12-28T13:26:05.236Z,15.00
2022-12-28T13:27:23.295Z,13.38
2022-12-28T13:28:34.338Z,12.75
2022-12-28T13:29:40.196Z,12.32
2022-12-28T13:30:55.626Z,13.35
2022-12-28T13:32:37.743Z,11.93
2022-12-28T13:34:00.672Z,10.25
2022-12-28T13:35:06.742Z,9.98
2022-12-28T13:36:18.117Z,11.75
2022-12-28T13:37:22.419Z,10.07
2022-12-28T13:38:27.843Z,9.25
2022-12-28T13:39:41.824Z,10.07
2022-12-28T13:40:55.458Z,10.40
2022-12-28T13:42:07.636Z,10.60
2022-12-28T13:43:55.745Z,10.48
2022-12-28T13:45:02.916Z,10.52
2022-12-28T13:46:14.187Z,11.55
2022-12-28T13:47:42.571Z,11.57
2022-12-28T13:48:51.655Z,13.60
2022-12-28T13:50:16.011Z,11.30
2022-12-28T13:51:32.644Z,11.63
2022-12-28T13:53:15.189Z,11.00
2022-12-28T13:54:28.531Z,11.20
2022-12-28T13:57:50.306Z,11.13
2022-12-28T13:59:03.460Z,11.95
2022-12-28T14:00:08.061Z,11.52
2022-12-28T14:01:20.888Z,11.40
2022-12-28T14:02:27.831Z,11.32
2022-12-28T14:03:37.680Z,11.88
2022-12-28T14:04:54.781Z,11.82
2022-12-28T14:06:05.091Z,13.18
2022-12-28T14:07:18.585Z,12.43
2022-12-28T14:08:22.762Z,12.75
2022-12-28T14:09:25.727Z,13.52
2022-12-28T14:10:31.547Z,15.32
2022-12-28T14:11:42.648Z,15.18
2022-12-28T14:12:50.548Z,15.18
2022-12-28T14:13:57.816Z,14.32
2022-12-28T14:15:10.089Z,14.60
2022-12-28T14:16:18.617Z,15.02
2022-12-28T14:17:22.843Z,15.23
2022-12-28T14:18:26.625Z,13.18
2022-12-28T14:19:32.528Z,15.88
2022-12-28T14:21:06.720Z,14.18
2022-12-28T14:22:45.334Z,15.85
2022-12-28T14:24:07.212Z,18.88
2022-12-28T14:25:16.841Z,20.83
2022-12-28T14:26:21.709Z,21.48
2022-12-28T14:27:25.472Z,22.02
2022-12-28T14:28:38.775Z,20.50
2022-12-28T14:29:51.869Z,22.17
2022-12-28T14:31:05.342Z,17.60
2022-12-28T14:32:23.139Z,18.52
2022-12-28T14:34:49.747Z,29.75
2022-12-28T14:36:11.493Z,25.40
2022-12-28T14:37:28.500Z,39.47
2022-12-28T14:38:50.043Z,28.75
2022-12-28T14:39:52.810Z,32.17
2022-12-28T14:41:07.901Z,31.83
2022-12-28T14:42:26.705Z,30.30
2022-12-28T14:43:41.967Z,38.25
2022-12-28T14:46:05.310Z,34.20
2022-12-28T14:47:46.584Z,24.73
2022-12-28T14:51:49.382Z,24.70
2022-12-28T14:57:23.075Z,23.58
2022-12-28T14:57:47.890Z,18.10
2022-12-28T14:59:13.666Z,18.02
2022-12-28T15:00:34.984Z,18.65
2022-12-28T15:01:49.865Z,19.00
2022-12-28T15:03:25.212Z,19.67
2022-12-28T15:05:04.325Z,24.23
2022-12-28T15:06:14.289Z,20.63
2022-12-28T15:07:42.837Z,21.55
2022-12-28T15:09:06.758Z,27.23
2022-12-28T15:10:35.375Z,24.35
2022-12-28T15:11:45.506Z,23.00
2022-12-28T15:12:56.087Z,22.75
2022-12-28T15:14:05.585Z,22.65
2022-12-28T15:15:14.451Z,21.27
2022-12-28T15:16:31.747Z,22.15
2022-12-28T15:17:53.750Z,26.73
2022-12-28T15:18:57.419Z,33.63
2022-12-28T15:20:03.926Z,21.60
2022-12-28T15:21:07.671Z,21.45
2022-12-28T15:22:18.678Z,24.40
2022-12-28T15:23:32.862Z,25.55
2022-12-28T15:25:05.074Z,19.48
2022-12-28T15:26:14.476Z,22.13
2022-12-28T15:27:17.401Z,18.70
2022-12-28T15:28:20.329Z,16.08
2022-12-28T15:29:47.571Z,19.17
2022-12-28T15:30:48.978Z,16.83
2022-12-28T15:32:16.458Z,18.25
2022-12-28T15:33:30.735Z,17.42
2022-12-28T15:34:51.669Z,17.00
2022-12-28T15:36:17.245Z,17.42
2022-12-28T15:37:21.254Z,18.30
2022-12-28T15:38:28.821Z,18.17
2022-12-28T15:39:32.297Z,19.20
2022-12-28T15:40:34.880Z,20.23
2022-12-28T15:41:46.534Z,20.83
2022-12-28T15:42:49.530Z,20.63
2022-12-28T15:43:55.248Z,20.83
2022-12-28T15:44:58.132Z,17.65
2022-12-28T15:46:01.059Z,17.10
2022-12-28T15:47:03.554Z,18.05
2022-12-28T15:48:06.526Z,18.05
2022-12-28T15:49:12.863Z,17.92
2022-12-28T15:50:15.423Z,17.67
2022-12-28T15:51:24.920Z,17.95
2022-12-28T15:52:27.705Z,18.52
2022-12-28T15:53:35.595Z,18.85
2022-12-28T15:54:40.298Z,20.73
2022-12-28T15:55:59.924Z,23.48
2022-12-28T15:57:02.989Z,22.73
2022-12-28T15:58:05.640Z,24.92
2022-12-28T16:00:42.831Z,19.27
2022-12-28T16:01:49.127Z,21.02
2022-12-28T16:02:54.714Z,20.52
2022-12-28T16:04:02.856Z,21.40
2022-12-28T16:05:15.150Z,19.92
2022-12-28T16:06:44.679Z,19.23
2022-12-28T16:07:53.394Z,21.13
2022-12-28T16:09:39.599Z,21.65
2022-12-28T16:10:46.158Z,20.33
2022-12-28T16:11:54.866Z,21.27
2022-12-28T16:12:59.923Z,22.10